sensor_id;sensor_type;location;lat;lon;timestamp;temperature;humidity
74940;HTU21D;63505;45.226;37.908;2023-03-31T00:00:56;2.93;80.71
74940;HTU21D;63505;45.226;37.908;2023-03-31T00:03:22;2.93;80.80
74940;HTU21D;63505;45.226;37.908;2023-03-31T00:05:56;2.97;80.76
74940;HTU21D;63505;45.226;37.908;2023-03-31T00:08:23;2.99;80.79
74940;HTU21D;63505;45.226;37.908;2023-03-31T00:10:50;3.03;80.74
74940;HTU21D;63505;45.226;37.908;2023-03-31T00:13:16;3.04;80.78
74940;HTU21D;63505;45.226;37.908;2023-03-31T00:15:42;3.05;80.70
74940;HTU21D;63505;45.226;37.908;2023-03-31T00:18:09;3.06;80.73
74940;HTU21D;63505;45.226;37.908;2023-03-31T00:20:34;3.09;80.79
74940;HTU21D;63505;45.226;37.908;2023-03-31T00:23:03;3.08;80.86
74940;HTU21D;63505;45.226;37.908;2023-03-31T00:25:31;3.09;81.07
74940;HTU21D;63505;45.226;37.908;2023-03-31T00:27:57;3.11;81.04
74940;HTU21D;63505;45.226;37.908;2023-03-31T00:30:23;3.13;81.10
74940;HTU21D;63505;45.226;37.908;2023-03-31T00:32:50;3.16;81.12
74940;HTU21D;63505;45.226;37.908;2023-03-31T00:35:16;3.21;81.10
74940;HTU21D;63505;45.226;37.908;2023-03-31T00:37:42;3.27;81.13
74940;HTU21D;63505;45.226;37.908;2023-03-31T00:40:10;3.29;81.11
74940;HTU21D;63505;45.226;37.908;2023-03-31T00:42:42;3.33;81.10
74940;HTU21D;63505;45.226;37.908;2023-03-31T00:50:27;3.44;80.85
74940;HTU21D;63505;45.226;37.908;2023-03-31T00:52:57;3.46;80.77
74940;HTU21D;63505;45.226;37.908;2023-03-31T00:55:32;3.44;80.69
74940;HTU21D;63505;45.226;37.908;2023-03-31T00:58:00;3.40;80.78
74940;HTU21D;63505;45.226;37.908;2023-03-31T01:00:26;3.39;80.85
74940;HTU21D;63505;45.226;37.908;2023-03-31T01:02:56;3.38;80.94
74940;HTU21D;63505;45.226;37.908;2023-03-31T01:05:44;3.36;81.01
74940;HTU21D;63505;45.226;37.908;2023-03-31T01:08:09;3.33;81.11
74940;HTU21D;63505;45.226;37.908;2023-03-31T01:10:39;3.32;81.22
74940;HTU21D;63505;45.226;37.908;2023-03-31T01:13:11;3.31;81.27
74940;HTU21D;63505;45.226;37.908;2023-03-31T01:15:38;3.32;81.41
74940;HTU21D;63505;45.226;37.908;2023-03-31T01:18:05;3.32;81.42
74940;HTU21D;63505;45.226;37.908;2023-03-31T01:29:03;3.23;82.05
74940;HTU21D;63505;45.226;37.908;2023-03-31T01:42:51;3.17;82.60
74940;HTU21D;63505;45.226;37.908;2023-03-31T01:50:48;3.16;83.13
74940;HTU21D;63505;45.226;37.908;2023-03-31T01:56:15;3.18;83.22
74940;HTU21D;63505;45.226;37.908;2023-03-31T01:58:55;3.16;83.26
74940;HTU21D;63505;45.226;37.908;2023-03-31T02:01:48;3.14;83.33
74940;HTU21D;63505;45.226;37.908;2023-03-31T02:04:21;3.12;83.34
74940;HTU21D;63505;45.226;37.908;2023-03-31T02:06:55;3.10;83.39
74940;HTU21D;63505;45.226;37.908;2023-03-31T02:09:27;3.06;83.44
74940;HTU21D;63505;45.226;37.908;2023-03-31T02:11:56;3.05;83.49
74940;HTU21D;63505;45.226;37.908;2023-03-31T02:14:26;3.06;83.52
74940;HTU21D;63505;45.226;37.908;2023-03-31T02:16:55;3.08;83.46
74940;HTU21D;63505;45.226;37.908;2023-03-31T02:19:31;3.06;83.49
74940;HTU21D;63505;45.226;37.908;2023-03-31T02:21:58;3.09;83.52
74940;HTU21D;63505;45.226;37.908;2023-03-31T02:24:27;3.09;83.67
74940;HTU21D;63505;45.226;37.908;2023-03-31T02:27:02;3.12;83.74
74940;HTU21D;63505;45.226;37.908;2023-03-31T02:29:30;3.10;83.84
74940;HTU21D;63505;45.226;37.908;2023-03-31T02:34:28;3.08;84.10
74940;HTU21D;63505;45.226;37.908;2023-03-31T02:36:55;3.09;84.29
74940;HTU21D;63505;45.226;37.908;2023-03-31T02:39:25;3.09;84.29
74940;HTU21D;63505;45.226;37.908;2023-03-31T02:41:53;3.09;84.43
74940;HTU21D;63505;45.226;37.908;2023-03-31T02:44:19;3.09;84.50
74940;HTU21D;63505;45.226;37.908;2023-03-31T02:46:46;3.11;84.59
74940;HTU21D;63505;45.226;37.908;2023-03-31T02:49:13;3.12;84.61
74940;HTU21D;63505;45.226;37.908;2023-03-31T02:52:18;3.14;84.54
74940;HTU21D;63505;45.226;37.908;2023-03-31T03:03:08;3.16;84.64
74940;HTU21D;63505;45.226;37.908;2023-03-31T03:06:48;3.20;84.63
74940;HTU21D;63505;45.226;37.908;2023-03-31T03:12:21;3.20;84.52
74940;HTU21D;63505;45.226;37.908;2023-03-31T03:14:56;3.20;84.45
74940;HTU21D;63505;45.226;37.908;2023-03-31T03:17:38;3.18;84.43
74940;HTU21D;63505;45.226;37.908;2023-03-31T03:20:06;3.19;84.39
74940;HTU21D;63505;45.226;37.908;2023-03-31T03:22:38;3.21;84.39
74940;HTU21D;63505;45.226;37.908;2023-03-31T03:25:10;3.25;84.34
74940;HTU21D;63505;45.226;37.908;2023-03-31T03:27:36;3.26;84.33
74940;HTU21D;63505;45.226;37.908;2023-03-31T03:30:05;3.30;84.34
74940;HTU21D;63505;45.226;37.908;2023-03-31T03:32:32;3.35;84.19
74940;HTU21D;63505;45.226;37.908;2023-03-31T03:34:59;3.43;84.14
74940;HTU21D;63505;45.226;37.908;2023-03-31T03:37:25;3.48;84.03
74940;HTU21D;63505;45.226;37.908;2023-03-31T03:39:51;3.53;84.03
74940;HTU21D;63505;45.226;37.908;2023-03-31T03:42:17;3.60;83.95
74940;HTU21D;63505;45.226;37.908;2023-03-31T03:44:42;3.67;83.87
74940;HTU21D;63505;45.226;37.908;2023-03-31T03:47:08;3.74;83.75
74940;HTU21D;63505;45.226;37.908;2023-03-31T03:49:34;3.78;83.64
74940;HTU21D;63505;45.226;37.908;2023-03-31T03:52:00;3.84;83.58
74940;HTU21D;63505;45.226;37.908;2023-03-31T03:54:26;3.88;83.46
74940;HTU21D;63505;45.226;37.908;2023-03-31T03:56:52;3.93;83.39
74940;HTU21D;63505;45.226;37.908;2023-03-31T03:59:18;3.99;83.27
74940;HTU21D;63505;45.226;37.908;2023-03-31T04:01:44;4.06;83.16
74940;HTU21D;63505;45.226;37.908;2023-03-31T04:04:09;4.08;83.00
74940;HTU21D;63505;45.226;37.908;2023-03-31T04:06:35;4.15;82.88
74940;HTU21D;63505;45.226;37.908;2023-03-31T04:09:01;4.21;82.75
74940;HTU21D;63505;45.226;37.908;2023-03-31T04:11:28;4.24;82.61
74940;HTU21D;63505;45.226;37.908;2023-03-31T04:13:54;4.30;82.42
74940;HTU21D;63505;45.226;37.908;2023-03-31T04:16:20;4.34;82.30
74940;HTU21D;63505;45.226;37.908;2023-03-31T04:18:51;4.41;82.17
74940;HTU21D;63505;45.226;37.908;2023-03-31T04:21:22;4.49;81.97
74940;HTU21D;63505;45.226;37.908;2023-03-31T04:23:53;4.56;81.76
74940;HTU21D;63505;45.226;37.908;2023-03-31T04:26:31;4.63;81.61
74940;HTU21D;63505;45.226;37.908;2023-03-31T04:29:11;4.69;81.46
74940;HTU21D;63505;45.226;37.908;2023-03-31T04:31:39;4.75;81.32
74940;HTU21D;63505;45.226;37.908;2023-03-31T04:34:08;4.79;81.20
74940;HTU21D;63505;45.226;37.908;2023-03-31T04:36:42;4.87;81.14
74940;HTU21D;63505;45.226;37.908;2023-03-31T04:39:18;4.97;81.04
74940;HTU21D;63505;45.226;37.908;2023-03-31T04:41:56;5.13;80.85
74940;HTU21D;63505;45.226;37.908;2023-03-31T04:44:22;5.27;80.68
74940;HTU21D;63505;45.226;37.908;2023-03-31T04:46:48;5.41;80.54
74940;HTU21D;63505;45.226;37.908;2023-03-31T04:49:14;5.59;80.29
74940;HTU21D;63505;45.226;37.908;2023-03-31T04:51:40;5.78;79.98
74940;HTU21D;63505;45.226;37.908;2023-03-31T04:54:06;5.84;79.75
74940;HTU21D;63505;45.226;37.908;2023-03-31T04:56:32;5.86;79.63
74940;HTU21D;63505;45.226;37.908;2023-03-31T04:58:58;5.89;79.53
74940;HTU21D;63505;45.226;37.908;2023-03-31T05:01:24;5.94;79.39
74940;HTU21D;63505;45.226;37.908;2023-03-31T05:03:50;6.00;79.17
74940;HTU21D;63505;45.226;37.908;2023-03-31T05:06:16;6.06;78.88
74940;HTU21D;63505;45.226;37.908;2023-03-31T05:08:43;6.12;78.72
74940;HTU21D;63505;45.226;37.908;2023-03-31T05:11:09;6.21;78.55
74940;HTU21D;63505;45.226;37.908;2023-03-31T05:13:35;6.30;78.30
74940;HTU21D;63505;45.226;37.908;2023-03-31T05:16:09;6.39;77.93
74940;HTU21D;63505;45.226;37.908;2023-03-31T05:18:36;6.41;77.72
74940;HTU21D;63505;45.226;37.908;2023-03-31T05:21:19;6.44;77.59
74940;HTU21D;63505;45.226;37.908;2023-03-31T05:23:46;6.51;77.42
74940;HTU21D;63505;45.226;37.908;2023-03-31T05:26:12;6.57;76.93
74940;HTU21D;63505;45.226;37.908;2023-03-31T05:28:39;6.66;76.44
74940;HTU21D;63505;45.226;37.908;2023-03-31T05:31:07;6.73;76.11
74940;HTU21D;63505;45.226;37.908;2023-03-31T05:33:33;6.82;75.86
74940;HTU21D;63505;45.226;37.908;2023-03-31T05:36:05;6.91;75.63
74940;HTU21D;63505;45.226;37.908;2023-03-31T05:38:31;7.05;75.31
74940;HTU21D;63505;45.226;37.908;2023-03-31T05:40:59;7.22;74.94
74940;HTU21D;63505;45.226;37.908;2023-03-31T05:43:25;7.41;74.60
74940;HTU21D;63505;45.226;37.908;2023-03-31T05:45:51;7.57;73.90
74940;HTU21D;63505;45.226;37.908;2023-03-31T05:48:17;7.71;73.09
74940;HTU21D;63505;45.226;37.908;2023-03-31T05:50:43;7.88;71.93
74940;HTU21D;63505;45.226;37.908;2023-03-31T05:53:09;8.04;70.56
74940;HTU21D;63505;45.226;37.908;2023-03-31T05:55:35;8.19;70.06
74940;HTU21D;63505;45.226;37.908;2023-03-31T05:58:02;8.43;69.38
74940;HTU21D;63505;45.226;37.908;2023-03-31T06:00:28;8.45;67.94
74940;HTU21D;63505;45.226;37.908;2023-03-31T06:02:54;8.48;67.77
74940;HTU21D;63505;45.226;37.908;2023-03-31T06:05:19;8.45;67.44
74940;HTU21D;63505;45.226;37.908;2023-03-31T06:07:47;8.52;67.57
74940;HTU21D;63505;45.226;37.908;2023-03-31T06:10:13;8.49;67.39
74940;HTU21D;63505;45.226;37.908;2023-03-31T06:12:39;8.44;67.35
74940;HTU21D;63505;45.226;37.908;2023-03-31T06:15:05;8.36;67.10
74940;HTU21D;63505;45.226;37.908;2023-03-31T06:17:31;8.32;66.63
74940;HTU21D;63505;45.226;37.908;2023-03-31T06:19:57;8.41;66.39
74940;HTU21D;63505;45.226;37.908;2023-03-31T06:22:22;8.59;66.02
74940;HTU21D;63505;45.226;37.908;2023-03-31T06:24:48;8.90;65.94
74940;HTU21D;63505;45.226;37.908;2023-03-31T06:27:14;9.18;65.45
74940;HTU21D;63505;45.226;37.908;2023-03-31T06:29:40;9.46;64.30
74940;HTU21D;63505;45.226;37.908;2023-03-31T06:32:06;9.59;64.29
74940;HTU21D;63505;45.226;37.908;2023-03-31T06:34:32;9.65;63.64
74940;HTU21D;63505;45.226;37.908;2023-03-31T06:36:58;9.81;63.71
74940;HTU21D;63505;45.226;37.908;2023-03-31T06:39:23;10.03;63.27
74940;HTU21D;63505;45.226;37.908;2023-03-31T06:41:49;10.13;61.68
74940;HTU21D;63505;45.226;37.908;2023-03-31T06:44:24;10.27;61.98
74940;HTU21D;63505;45.226;37.908;2023-03-31T06:46:50;10.25;59.60
74940;HTU21D;63505;45.226;37.908;2023-03-31T06:49:16;10.18;59.77
74940;HTU21D;63505;45.226;37.908;2023-03-31T06:51:42;10.09;58.84
74940;HTU21D;63505;45.226;37.908;2023-03-31T06:54:08;10.09;59.15
74940;HTU21D;63505;45.226;37.908;2023-03-31T06:56:34;10.30;59.42
74940;HTU21D;63505;45.226;37.908;2023-03-31T06:58:59;10.56;59.25
74940;HTU21D;63505;45.226;37.908;2023-03-31T07:01:25;10.66;58.14
74940;HTU21D;63505;45.226;37.908;2023-03-31T07:03:53;10.72;57.85
74940;HTU21D;63505;45.226;37.908;2023-03-31T07:06:19;10.87;57.98
74940;HTU21D;63505;45.226;37.908;2023-03-31T07:08:45;11.14;58.38
74940;HTU21D;63505;45.226;37.908;2023-03-31T07:11:11;11.23;56.96
74940;HTU21D;63505;45.226;37.908;2023-03-31T07:13:37;11.09;55.25
74940;HTU21D;63505;45.226;37.908;2023-03-31T07:16:03;11.15;55.88
74940;HTU21D;63505;45.226;37.908;2023-03-31T07:18:29;11.26;55.94
74940;HTU21D;63505;45.226;37.908;2023-03-31T07:20:59;11.41;55.21
74940;HTU21D;63505;45.226;37.908;2023-03-31T07:23:25;11.30;53.30
74940;HTU21D;63505;45.226;37.908;2023-03-31T07:25:51;11.20;53.47
74940;HTU21D;63505;45.226;37.908;2023-03-31T07:28:17;11.27;53.30
74940;HTU21D;63505;45.226;37.908;2023-03-31T07:30:43;11.23;52.96
74940;HTU21D;63505;45.226;37.908;2023-03-31T07:33:09;11.18;52.98
74940;HTU21D;63505;45.226;37.908;2023-03-31T07:35:38;11.18;52.73
74940;HTU21D;63505;45.226;37.908;2023-03-31T07:38:04;11.41;52.66
74940;HTU21D;63505;45.226;37.908;2023-03-31T07:40:29;11.58;53.17
74940;HTU21D;63505;45.226;37.908;2023-03-31T07:42:55;11.72;52.32
74940;HTU21D;63505;45.226;37.908;2023-03-31T07:45:23;11.78;52.20
74940;HTU21D;63505;45.226;37.908;2023-03-31T07:47:50;11.93;51.90
74940;HTU21D;63505;45.226;37.908;2023-03-31T07:50:17;11.89;50.24
74940;HTU21D;63505;45.226;37.908;2023-03-31T07:52:45;11.91;50.37
74940;HTU21D;63505;45.226;37.908;2023-03-31T07:55:12;12.14;51.08
74940;HTU21D;63505;45.226;37.908;2023-03-31T07:57:38;12.10;48.73
74940;HTU21D;63505;45.226;37.908;2023-03-31T08:00:05;12.00;48.55
74940;HTU21D;63505;45.226;37.908;2023-03-31T08:02:40;12.06;48.19
74940;HTU21D;63505;45.226;37.908;2023-03-31T08:05:08;12.04;48.69
74940;HTU21D;63505;45.226;37.908;2023-03-31T08:07:36;12.10;49.70
74940;HTU21D;63505;45.226;37.908;2023-03-31T08:10:08;12.30;50.14
74940;HTU21D;63505;45.226;37.908;2023-03-31T08:12:34;12.35;46.35
74940;HTU21D;63505;45.226;37.908;2023-03-31T08:15:00;12.25;46.97
74940;HTU21D;63505;45.226;37.908;2023-03-31T08:17:26;12.26;46.71
74940;HTU21D;63505;45.226;37.908;2023-03-31T08:19:52;12.52;48.08
74940;HTU21D;63505;45.226;37.908;2023-03-31T08:22:19;12.79;47.53
74940;HTU21D;63505;45.226;37.908;2023-03-31T08:24:46;12.84;47.12
74940;HTU21D;63505;45.226;37.908;2023-03-31T08:27:12;13.03;47.20
74940;HTU21D;63505;45.226;37.908;2023-03-31T08:29:37;13.05;45.25
74940;HTU21D;63505;45.226;37.908;2023-03-31T08:32:03;12.78;45.89
74940;HTU21D;63505;45.226;37.908;2023-03-31T08:34:29;12.86;45.95
74940;HTU21D;63505;45.226;37.908;2023-03-31T08:36:55;12.93;43.06
74940;HTU21D;63505;45.226;37.908;2023-03-31T08:39:21;12.66;42.61
74940;HTU21D;63505;45.226;37.908;2023-03-31T08:41:59;12.92;44.48
74940;HTU21D;63505;45.226;37.908;2023-03-31T08:44:46;12.95;44.28
74940;HTU21D;63505;45.226;37.908;2023-03-31T08:47:19;12.58;44.71
74940;HTU21D;63505;45.226;37.908;2023-03-31T08:49:53;12.04;44.83
74940;HTU21D;63505;45.226;37.908;2023-03-31T08:52:27;11.76;45.88
74940;HTU21D;63505;45.226;37.908;2023-03-31T08:54:58;11.71;46.95
74940;HTU21D;63505;45.226;37.908;2023-03-31T08:57:39;11.98;45.24
74940;HTU21D;63505;45.226;37.908;2023-03-31T09:00:17;11.98;44.68
74940;HTU21D;63505;45.226;37.908;2023-03-31T09:03:01;12.29;45.10
74940;HTU21D;63505;45.226;37.908;2023-03-31T09:05:59;12.70;44.90
74940;HTU21D;63505;45.226;37.908;2023-03-31T09:08:37;13.00;44.41
74940;HTU21D;63505;45.226;37.908;2023-03-31T09:11:08;13.18;43.89
74940;HTU21D;63505;45.226;37.908;2023-03-31T09:13:43;12.95;43.05
74940;HTU21D;63505;45.226;37.908;2023-03-31T09:16:17;12.95;44.15
74940;HTU21D;63505;45.226;37.908;2023-03-31T09:18:46;12.87;44.22
74940;HTU21D;63505;45.226;37.908;2023-03-31T09:21:39;13.03;44.03
74940;HTU21D;63505;45.226;37.908;2023-03-31T09:24:20;13.10;40.38
74940;HTU21D;63505;45.226;37.908;2023-03-31T09:27:00;13.11;40.36
74940;HTU21D;63505;45.226;37.908;2023-03-31T09:29:59;13.09;41.31
74940;HTU21D;63505;45.226;37.908;2023-03-31T09:32:30;13.49;42.53
74940;HTU21D;63505;45.226;37.908;2023-03-31T09:35:18;13.51;40.43
74940;HTU21D;63505;45.226;37.908;2023-03-31T09:37:46;13.37;41.47
74940;HTU21D;63505;45.226;37.908;2023-03-31T09:40:21;13.64;41.81
74940;HTU21D;63505;45.226;37.908;2023-03-31T09:43:17;13.64;40.94
74940;HTU21D;63505;45.226;37.908;2023-03-31T09:45:46;13.86;41.52
74940;HTU21D;63505;45.226;37.908;2023-03-31T09:48:19;14.22;41.31
74940;HTU21D;63505;45.226;37.908;2023-03-31T09:50:49;14.47;39.87
74940;HTU21D;63505;45.226;37.908;2023-03-31T09:53:50;14.22;38.92
74940;HTU21D;63505;45.226;37.908;2023-03-31T09:56:45;14.24;39.30
74940;HTU21D;63505;45.226;37.908;2023-03-31T09:59:18;14.28;37.73
74940;HTU21D;63505;45.226;37.908;2023-03-31T10:01:46;14.06;39.21
74940;HTU21D;63505;45.226;37.908;2023-03-31T10:04:21;13.50;36.81
74940;HTU21D;63505;45.226;37.908;2023-03-31T10:06:47;13.31;38.04
74940;HTU21D;63505;45.226;37.908;2023-03-31T10:09:14;13.26;37.82
74940;HTU21D;63505;45.226;37.908;2023-03-31T10:11:52;13.09;39.13
74940;HTU21D;63505;45.226;37.908;2023-03-31T10:14:26;12.79;39.14
74940;HTU21D;63505;45.226;37.908;2023-03-31T10:16:55;12.57;40.52
74940;HTU21D;63505;45.226;37.908;2023-03-31T10:19:26;12.82;41.09
74940;HTU21D;63505;45.226;37.908;2023-03-31T10:22:16;12.60;39.39
74940;HTU21D;63505;45.226;37.908;2023-03-31T10:24:51;12.52;40.65
74940;HTU21D;63505;45.226;37.908;2023-03-31T10:27:22;12.80;40.96
74940;HTU21D;63505;45.226;37.908;2023-03-31T10:29:54;12.91;41.36
74940;HTU21D;63505;45.226;37.908;2023-03-31T10:32:24;13.08;41.22
74940;HTU21D;63505;45.226;37.908;2023-03-31T10:34:54;12.97;41.86
74940;HTU21D;63505;45.226;37.908;2023-03-31T10:37:24;13.21;42.01
74940;HTU21D;63505;45.226;37.908;2023-03-31T10:40:18;13.16;41.68
74940;HTU21D;63505;45.226;37.908;2023-03-31T10:42:47;13.10;40.89
74940;HTU21D;63505;45.226;37.908;2023-03-31T10:45:25;13.22;40.20
74940;HTU21D;63505;45.226;37.908;2023-03-31T10:47:58;13.44;39.88
74940;HTU21D;63505;45.226;37.908;2023-03-31T10:50:33;13.65;39.21
74940;HTU21D;63505;45.226;37.908;2023-03-31T10:53:13;13.94;39.75
74940;HTU21D;63505;45.226;37.908;2023-03-31T11:03:49;13.11;40.69
74940;HTU21D;63505;45.226;37.908;2023-03-31T11:14:51;12.63;42.64
74940;HTU21D;63505;45.226;37.908;2023-03-31T11:25:22;13.55;40.65
74940;HTU21D;63505;45.226;37.908;2023-03-31T11:28:31;13.66;41.08
74940;HTU21D;63505;45.226;37.908;2023-03-31T11:31:46;13.70;39.69
74940;HTU21D;63505;45.226;37.908;2023-03-31T11:42:10;13.71;39.90
74940;HTU21D;63505;45.226;37.908;2023-03-31T11:44:42;13.38;41.04
74940;HTU21D;63505;45.226;37.908;2023-03-31T11:47:17;13.83;41.87
74940;HTU21D;63505;45.226;37.908;2023-03-31T11:49:54;14.30;42.16
74940;HTU21D;63505;45.226;37.908;2023-03-31T11:52:33;14.48;41.29
74940;HTU21D;63505;45.226;37.908;2023-03-31T11:55:20;14.28;39.20
74940;HTU21D;63505;45.226;37.908;2023-03-31T11:58:03;14.21;40.18
74940;HTU21D;63505;45.226;37.908;2023-03-31T12:06:12;13.70;40.36
74940;HTU21D;63505;45.226;37.908;2023-03-31T12:11:44;13.93;39.84
74940;HTU21D;63505;45.226;37.908;2023-03-31T12:14:26;13.95;40.52
74940;HTU21D;63505;45.226;37.908;2023-03-31T12:16:54;14.05;39.79
74940;HTU21D;63505;45.226;37.908;2023-03-31T12:19:40;14.04;40.34
74940;HTU21D;63505;45.226;37.908;2023-03-31T12:22:18;14.11;39.70
74940;HTU21D;63505;45.226;37.908;2023-03-31T12:24:46;14.12;38.89
74940;HTU21D;63505;45.226;37.908;2023-03-31T12:27:15;13.66;39.65
74940;HTU21D;63505;45.226;37.908;2023-03-31T12:30:04;13.58;40.34
74940;HTU21D;63505;45.226;37.908;2023-03-31T12:33:21;14.04;40.60
74940;HTU21D;63505;45.226;37.908;2023-03-31T12:45:09;13.82;40.05
74940;HTU21D;63505;45.226;37.908;2023-03-31T12:59:34;13.20;40.55
74940;HTU21D;63505;45.226;37.908;2023-03-31T13:02:22;13.12;41.29
74940;HTU21D;63505;45.226;37.908;2023-03-31T13:04:48;13.46;41.52
74940;HTU21D;63505;45.226;37.908;2023-03-31T13:07:36;13.71;40.78
74940;HTU21D;63505;45.226;37.908;2023-03-31T13:10:30;13.44;40.18
74940;HTU21D;63505;45.226;37.908;2023-03-31T13:13:12;12.94;41.29
74940;HTU21D;63505;45.226;37.908;2023-03-31T13:15:39;12.90;41.12
74940;HTU21D;63505;45.226;37.908;2023-03-31T13:18:06;12.97;40.84
74940;HTU21D;63505;45.226;37.908;2023-03-31T13:20:39;13.09;41.00
74940;HTU21D;63505;45.226;37.908;2023-03-31T13:23:19;13.02;41.43
74940;HTU21D;63505;45.226;37.908;2023-03-31T13:25:51;12.93;41.87
74940;HTU21D;63505;45.226;37.908;2023-03-31T13:28:27;13.02;42.41
74940;HTU21D;63505;45.226;37.908;2023-03-31T13:31:00;13.05;42.75
74940;HTU21D;63505;45.226;37.908;2023-03-31T13:47:36;11.93;43.88
74940;HTU21D;63505;45.226;37.908;2023-03-31T14:07:19;11.40;46.31
74940;HTU21D;63505;45.226;37.908;2023-03-31T14:09:51;11.55;46.29
74940;HTU21D;63505;45.226;37.908;2023-03-31T14:12:42;11.67;46.12
74940;HTU21D;63505;45.226;37.908;2023-03-31T14:15:17;11.64;45.44
74940;HTU21D;63505;45.226;37.908;2023-03-31T14:17:43;11.72;46.30
74940;HTU21D;63505;45.226;37.908;2023-03-31T14:20:55;11.85;46.53
74940;HTU21D;63505;45.226;37.908;2023-03-31T14:23:33;12.08;46.67
74940;HTU21D;63505;45.226;37.908;2023-03-31T14:29:10;12.13;46.38
74940;HTU21D;63505;45.226;37.908;2023-03-31T14:37:18;12.11;45.47
74940;HTU21D;63505;45.226;37.908;2023-03-31T14:39:50;12.06;45.69
74940;HTU21D;63505;45.226;37.908;2023-03-31T14:42:51;11.97;45.47
74940;HTU21D;63505;45.226;37.908;2023-03-31T14:45:25;11.81;45.30
74940;HTU21D;63505;45.226;37.908;2023-03-31T14:47:57;11.70;45.52
74940;HTU21D;63505;45.226;37.908;2023-03-31T14:50:29;11.54;45.73
74940;HTU21D;63505;45.226;37.908;2023-03-31T14:52:56;11.47;46.36
74940;HTU21D;63505;45.226;37.908;2023-03-31T14:55:25;11.36;46.52
74940;HTU21D;63505;45.226;37.908;2023-03-31T14:57:54;11.22;46.61
74940;HTU21D;63505;45.226;37.908;2023-03-31T15:00:26;11.09;46.95
74940;HTU21D;63505;45.226;37.908;2023-03-31T15:02:53;11.08;47.44
74940;HTU21D;63505;45.226;37.908;2023-03-31T15:05:33;11.05;47.79
74940;HTU21D;63505;45.226;37.908;2023-03-31T15:08:05;10.99;47.68
74940;HTU21D;63505;45.226;37.908;2023-03-31T15:10:40;10.94;48.16
74940;HTU21D;63505;45.226;37.908;2023-03-31T15:13:09;10.85;48.21
74940;HTU21D;63505;45.226;37.908;2023-03-31T15:15:35;10.79;48.76
74940;HTU21D;63505;45.226;37.908;2023-03-31T15:18:02;10.66;49.30
74940;HTU21D;63505;45.226;37.908;2023-03-31T15:20:29;10.55;49.47
74940;HTU21D;63505;45.226;37.908;2023-03-31T15:22:58;10.46;49.69
74940;HTU21D;63505;45.226;37.908;2023-03-31T15:25:44;10.31;50.05
74940;HTU21D;63505;45.226;37.908;2023-03-31T15:28:13;10.14;50.34
74940;HTU21D;63505;45.226;37.908;2023-03-31T15:30:41;10.06;50.40
74940;HTU21D;63505;45.226;37.908;2023-03-31T15:33:07;9.95;50.50
74940;HTU21D;63505;45.226;37.908;2023-03-31T15:35:41;9.84;50.73
74940;HTU21D;63505;45.226;37.908;2023-03-31T15:38:10;9.75;50.78
74940;HTU21D;63505;45.226;37.908;2023-03-31T15:40:40;9.63;50.72
74940;HTU21D;63505;45.226;37.908;2023-03-31T15:45:55;9.38;50.77
74940;HTU21D;63505;45.226;37.908;2023-03-31T15:48:27;9.25;50.92
74940;HTU21D;63505;45.226;37.908;2023-03-31T15:53:44;9.05;51.10
74940;HTU21D;63505;45.226;37.908;2023-03-31T15:56:36;8.90;51.65
74940;HTU21D;63505;45.226;37.908;2023-03-31T16:01:48;8.70;51.96
74940;HTU21D;63505;45.226;37.908;2023-03-31T16:04:15;8.59;52.28
74940;HTU21D;63505;45.226;37.908;2023-03-31T16:06:57;8.49;52.69
74940;HTU21D;63505;45.226;37.908;2023-03-31T16:09:36;8.39;53.04
74940;HTU21D;63505;45.226;37.908;2023-03-31T16:12:04;8.30;53.36
74940;HTU21D;63505;45.226;37.908;2023-03-31T16:14:41;8.18;53.66
74940;HTU21D;63505;45.226;37.908;2023-03-31T16:17:22;8.09;53.95
74940;HTU21D;63505;45.226;37.908;2023-03-31T16:19:57;8.00;54.05
74940;HTU21D;63505;45.226;37.908;2023-03-31T16:22:29;7.91;54.65
74940;HTU21D;63505;45.226;37.908;2023-03-31T16:24:57;7.82;55.26
74940;HTU21D;63505;45.226;37.908;2023-03-31T16:27:23;7.76;55.83
74940;HTU21D;63505;45.226;37.908;2023-03-31T16:29:49;7.72;56.03
74940;HTU21D;63505;45.226;37.908;2023-03-31T16:32:17;7.69;56.45
74940;HTU21D;63505;45.226;37.908;2023-03-31T16:34:58;7.70;56.77
74940;HTU21D;63505;45.226;37.908;2023-03-31T16:37:24;7.67;56.86
74940;HTU21D;63505;45.226;37.908;2023-03-31T16:39:51;7.68;56.97
74940;HTU21D;63505;45.226;37.908;2023-03-31T16:42:18;7.65;57.50
74940;HTU21D;63505;45.226;37.908;2023-03-31T16:44:44;7.60;57.70
74940;HTU21D;63505;45.226;37.908;2023-03-31T16:47:14;7.52;58.24
74940;HTU21D;63505;45.226;37.908;2023-03-31T16:49:40;7.42;58.63
74940;HTU21D;63505;45.226;37.908;2023-03-31T16:52:06;7.30;58.98
74940;HTU21D;63505;45.226;37.908;2023-03-31T16:54:34;7.20;59.36
74940;HTU21D;63505;45.226;37.908;2023-03-31T16:57:00;7.11;59.75
74940;HTU21D;63505;45.226;37.908;2023-03-31T16:59:26;7.00;60.21
74940;HTU21D;63505;45.226;37.908;2023-03-31T17:01:52;6.91;60.60
74940;HTU21D;63505;45.226;37.908;2023-03-31T17:04:19;6.84;60.86
74940;HTU21D;63505;45.226;37.908;2023-03-31T17:06:45;6.74;60.89
74940;HTU21D;63505;45.226;37.908;2023-03-31T17:09:12;6.67;60.86
74940;HTU21D;63505;45.226;37.908;2023-03-31T17:11:38;6.59;61.25
74940;HTU21D;63505;45.226;37.908;2023-03-31T17:14:03;6.53;61.38
74940;HTU21D;63505;45.226;37.908;2023-03-31T17:16:30;6.45;61.82
74940;HTU21D;63505;45.226;37.908;2023-03-31T17:18:56;6.41;62.00
74940;HTU21D;63505;45.226;37.908;2023-03-31T17:21:22;6.39;61.90
74940;HTU21D;63505;45.226;37.908;2023-03-31T17:23:49;6.33;62.35
74940;HTU21D;63505;45.226;37.908;2023-03-31T17:26:15;6.29;62.57
74940;HTU21D;63505;45.226;37.908;2023-03-31T17:28:42;6.24;63.22
74940;HTU21D;63505;45.226;37.908;2023-03-31T17:31:19;6.19;63.83
74940;HTU21D;63505;45.226;37.908;2023-03-31T17:33:46;6.14;64.34
74940;HTU21D;63505;45.226;37.908;2023-03-31T17:36:13;6.11;64.83
74940;HTU21D;63505;45.226;37.908;2023-03-31T17:38:40;6.08;64.98
74940;HTU21D;63505;45.226;37.908;2023-03-31T17:41:09;6.06;65.19
74940;HTU21D;63505;45.226;37.908;2023-03-31T17:43:35;6.06;65.24
74940;HTU21D;63505;45.226;37.908;2023-03-31T17:46:03;6.04;65.31
74940;HTU21D;63505;45.226;37.908;2023-03-31T17:48:31;5.99;65.27
74940;HTU21D;63505;45.226;37.908;2023-03-31T17:51:03;5.95;65.25
74940;HTU21D;63505;45.226;37.908;2023-03-31T17:53:30;5.92;65.43
74940;HTU21D;63505;45.226;37.908;2023-03-31T17:55:56;5.90;65.57
74940;HTU21D;63505;45.226;37.908;2023-03-31T17:58:22;5.86;65.75
74940;HTU21D;63505;45.226;37.908;2023-03-31T18:00:48;5.86;65.97
74940;HTU21D;63505;45.226;37.908;2023-03-31T18:03:13;5.84;66.33
74940;HTU21D;63505;45.226;37.908;2023-03-31T18:05:39;5.83;66.45
74940;HTU21D;63505;45.226;37.908;2023-03-31T18:08:06;5.78;66.55
74940;HTU21D;63505;45.226;37.908;2023-03-31T18:10:32;5.74;66.75
74940;HTU21D;63505;45.226;37.908;2023-03-31T18:12:58;5.69;66.91